Time;durP1;ratioP1;P1;durP2;ratioP2;P2;SDS_P1;SDS_P2;PMS_P1;PMS_P2;Temp;Humidity;BMP_temperature;BMP_pressure;BME280_temperature;BME280_humidity;BME280_pressure;Samples;Min_cycle;Max_cycle;Signal;HPM_P1;HPM_P2
2022/04/26 03:36:10;;;;;;;;;;;;;;;;;;5069127;28;20011;-77
2022/04/26 03:38:35;;;;;;;;;;;;;;;;;;5068120;28;19970;-78
2022/04/26 03:41:01;;;;;;;;;;;;;;;;;;5067758;28;20353;-78
2022/04/26 03:43:26;;;;;;;;;;;;;;;;;;5067110;28;19916;-77
2022/04/26 03:45:53;;;;;;;;;;;;;;;;;;5068301;28;20004;-75
2022/04/26 03:48:18;;;;;;;;;;;;;;;;;;5072663;28;20011;-75
2022/04/26 03:50:44;;;;;;;;;;;;;;;;;;5070239;28;20003;-76
2022/04/26 03:53:09;;;;;;;;;;;;;;;;;;5071878;28;19977;-79
2022/04/26 03:55:35;;;;;;;;;;;;;;;;;;5071250;28;19920;-76
2022/04/26 03:58:00;;;;;;;;;;;;;;;;;;5074178;28;19919;-75
2022/04/26 04:00:26;;;;;;;;;;;;;;;;;;5074190;28;19924;-77
2022/04/26 04:02:51;;;;;;;;;;;;;;;;;;5073995;28;19919;-81
2022/04/26 04:05:17;;;;;;;;;;;;;;;;;;5073965;28;19917;-78
2022/04/26 04:07:42;;;;;;;;;;;;;;;;;;5072748;28;20060;-76
2022/04/26 04:10:08;;;;;;;;;;;;;;;;;;5072119;28;19916;-75
2022/04/26 04:12:33;;;;;;;;;;;;;;;;;;5057271;28;19943;-78
2022/04/26 04:14:59;;;;;;;;;;;;;;;;;;5053865;28;19940;-82
2022/04/26 04:17:24;;;;;;;;;;;;;;;;;;5053967;28;19917;-78
2022/04/26 04:19:49;;;;;;;;;;;;;;;;;;5053675;28;20297;-76
2022/04/26 04:22:15;;;;;;;;;;;;;;;;;;5053303;28;20012;-81
2022/04/26 04:24:40;;;;;;;;;;;;;;;;;;5052316;28;20432;-83
2022/04/26 04:27:06;;;;;;;;;;;;;;;;;;5053683;28;19924;-75
2022/04/26 04:29:31;;;;;;;;;;;;;;;;;;5053298;28;20328;-73
2022/04/26 04:31:57;;;;;;;;;;;;;;;;;;5052358;28;19920;-74
2022/04/26 04:34:22;;;;;;;;;;;;;;;;;;5052032;28;19920;-76
2022/04/26 04:36:48;;;;;;;;;;;;;;;;;;5053494;28;20007;-74
2022/04/26 04:39:19;;;;;;;;;;;;;;;;;;5053380;28;19927;-74
2022/04/26 04:41:45;;;;;;;;;;;;;;;;;;5053095;28;19921;-74
2022/04/26 04:44:11;;;;;;;;;;;;;;;;;;5053325;28;20423;-74
2022/04/26 04:46:36;;;;;;;;;;;;;;;;;;5053346;28;19920;-75
2022/04/26 04:49:02;;;;;;;;;;;;;;;;;;5053088;28;19928;-74
2022/04/26 04:51:27;;;;;;;;;;;;;;;;;;5053119;28;20285;-74
2022/04/26 04:53:53;;;;;;;;;;;;;;;;;;5054535;28;19920;-76
2022/04/26 04:56:18;;;;;;;;;;;;;;;;;;5053069;28;19967;-82
2022/04/26 04:58:43;;;;;;;;;;;;;;;;;;5051870;28;19925;-81
2022/04/26 05:01:09;;;;;;;;;;;;;;;;;;5053084;28;20374;-79
2022/04/26 05:03:34;;;;;;;;;;;;;;;;;;5053012;28;19928;-78
2022/04/26 05:06:00;;;;;;;;;;;;;;;;;;5053044;28;19928;-79
2022/04/26 05:08:25;;;;;;;;;;;;;;;;;;5052766;28;19928;-77
2022/04/26 05:10:51;;;;;;;;;;;;;;;;;;5052959;28;19939;-79
2022/04/26 05:13:16;;;;;;;;;;;;;;;;;;5052893;28;20391;-81
2022/04/26 05:15:44;;;;;;;;;;;;;;;;;;5053355;28;19956;-75
2022/04/26 05:18:12;;;;;;;;;;;;;;;;;;5052988;28;19958;-75
2022/04/26 05:20:37;;;;;;;;;;;;;;;;;;5052770;28;19924;-77
2022/04/26 05:25:47;;;;;;;;;;;;;;;;;;5052730;28;19924;-76
2022/04/26 05:28:12;;;;;;;;;;;;;;;;;;5051485;28;19921;-78
2022/04/26 05:30:37;;;;;;;;;;;;;;;;;;5052797;28;19924;-74
2022/04/26 05:33:03;;;;;;;;;;;;;;;;;;5052637;28;19924;-74
2022/04/26 05:35:28;;;;;;;;;;;;;;;;;;5052667;28;19924;-78
2022/04/26 05:37:54;;;;;;;;;;;;;;;;;;5052683;28;19924;-74
2022/04/26 05:40:19;;;;;;;;;;;;;;;;;;5051521;28;20019;-74
2022/04/26 05:42:45;;;;;;;;;;;;;;;;;;5052443;28;20368;-74
2022/04/26 05:45:10;;;;;;;;;;;;;;;;;;5067930;28;19917;-75
2022/04/26 05:48:01;;;;;;;;;;;;;;;;;;5052585;28;19917;-80
2022/04/26 05:50:27;;;;;;;;;;;;;;;;;;5042688;28;19917;-80
2022/04/26 05:52:52;;;;;;;;;;;;;;;;;;5052301;28;19943;-76
2022/04/26 05:55:17;;;;;;;;;;;;;;;;;;5052581;28;19968;-75
2022/04/26 05:57:44;;;;;;;;;;;;;;;;;;5052500;28;19925;-78
2022/04/26 06:00:11;;;;;;;;;;;;;;;;;;5052541;28;20330;-76
2022/04/26 06:02:37;;;;;;;;;;;;;;;;;;5052964;28;20054;-89
2022/04/26 06:05:03;;;;;;;;;;;;;;;;;;5056082;28;20007;-79
2022/04/26 06:07:28;;;;;;;;;;;;;;;;;;5055882;28;19920;-82
2022/04/26 06:09:57;;;;;;;;;;;;;;;;;;5056219;28;20027;-79
2022/04/26 06:12:26;;;;;;;;;;;;;;;;;;5056186;28;19973;-77
2022/04/26 06:14:55;;;;;;;;;;;;;;;;;;5056258;28;19917;-78
2022/04/26 06:17:20;;;;;;;;;;;;;;;;;;5056104;28;20007;-84
2022/04/26 06:19:46;;;;;;;;;;;;;;;;;;5055902;28;20432;-79
2022/04/26 06:22:12;;;;;;;;;;;;;;;;;;5055641;28;19956;-84
2022/04/26 06:24:37;;;;;;;;;;;;;;;;;;5055892;28;19970;-87
2022/04/26 06:27:03;;;;;;;;;;;;;;;;;;5055711;28;20015;-83
2022/04/26 06:29:29;;;;;;;;;;;;;;;;;;5055613;28;19917;-82
2022/04/26 06:31:54;;;;;;;;;;;;;;;;;;5055843;28;19928;-80
2022/04/26 06:34:20;;;;;;;;;;;;;;;;;;5055778;28;19916;-80
2022/04/26 06:36:45;;;;;;;;;;;;;;;;;;5055740;28;20402;-84
2022/04/26 06:39:11;;;;;;;;;;;;;;;;;;5055608;28;19928;-76
2022/04/26 06:41:36;;;;;;;;;;;;;;;;;;5056621;28;19920;-80
2022/04/26 06:44:02;;;;;;;;;;;;;;;;;;5055465;28;20355;-76
2022/04/26 06:46:27;;;;;;;;;;;;;;;;;;5055463;28;19917;-76
2022/04/26 06:48:57;;;;;;;;;;;;;;;;;;5055278;28;19921;-76
2022/04/26 06:51:22;;;;;;;;;;;;;;;;;;5055478;28;19928;-76
2022/04/26 06:53:48;;;;;;;;;;;;;;;;;;5073533;28;19917;-76
2022/04/26 06:56:14;;;;;;;;;;;;;;;;;;5075549;28;19981;-77
2022/04/26 06:58:39;;;;;;;;;;;;;;;;;;5075364;28;19917;-77
2022/04/26 07:01:05;;;;;;;;;;;;;;;;;;5065577;28;19916;-79
2022/04/26 07:03:31;;;;;;;;;;;;;;;;;;5054887;28;19923;-86
2022/04/26 07:05:56;;;;;;;;;;;;;;;;;;5054971;28;20292;-86
2022/04/26 07:08:22;;;;;;;;;;;;;;;;;;5054997;28;19920;-77
2022/04/26 07:10:48;;;;;;;;;;;;;;;;;;5055086;28;19921;-87
2022/04/26 07:13:20;;;;;;;;;;;;;;;;;;5054348;28;19925;-85
2022/04/26 07:15:46;;;;;;;;;;;;;;;;;;5054654;28;19921;-86
2022/04/26 07:18:14;;;;;;;;;;;;;;;;;;5068630;28;20382;-77
2022/04/26 07:20:40;;;;;;;;;;;;;;;;;;5074727;28;20292;-80
2022/04/26 07:23:07;;;;;;;;;;;;;;;;;;5074650;28;19913;-83
2022/04/26 07:25:33;;;;;;;;;;;;;;;;;;5074711;28;20315;-81
2022/04/26 07:27:59;;;;;;;;;;;;;;;;;;5073574;28;19923;-82
2022/04/26 07:30:34;;;;;;;;;;;;;;;;;;5074818;28;19916;-76
2022/04/26 07:35:46;;;;;;;;;;;;;;;;;;5071038;28;19967;-76
2022/04/26 07:38:11;;;;;;;;;;;;;;;;;;5059997;28;19947;-76
2022/04/26 07:40:37;;;;;;;;;;;;;;;;;;5074498;28;19920;-77
2022/04/26 07:43:04;;;;;;;;;;;;;;;;;;5074271;28;20388;-75
2022/04/26 07:45:30;;;;;;;;;;;;;;;;;;5068882;28;19916;-83
2022/04/26 07:47:56;;;;;;;;;;;;;;;;;;5072259;28;20330;-77
2022/04/26 07:50:21;;;;;;;;;;;;;;;;;;5056857;28;19924;-77
2022/04/26 07:52:47;;;;;;;;;;;;;;;;;;5073526;28;20387;-83
2022/04/26 07:55:13;;;;;;;;;;;;;;;;;;5074173;28;20395;-78
2022/04/26 07:57:39;;;;;;;;;;;;;;;;;;5074130;28;19966;-79
2022/04/26 08:00:05;;;;;;;;;;;;;;;;;;5074103;28;20021;-78
2022/04/26 08:02:30;;;;;;;;;;;;;;;;;;5073873;28;20422;-82
2022/04/26 08:05:01;;;;;;;;;;;;;;;;;;5073693;28;19956;-81
2022/04/26 08:07:29;;;;;;;;;;;;;;;;;;5072464;28;19920;-82
2022/04/26 08:09:55;;;;;;;;;;;;;;;;;;5073886;28;19921;-76
2022/04/26 08:12:21;;;;;;;;;;;;;;;;;;5073749;28;19962;-76
2022/04/26 08:14:47;;;;;;;;;;;;;;;;;;5073755;28;19970;-77
2022/04/26 08:17:15;;;;;;;;;;;;;;;;;;5073624;28;19927;-77
2022/04/26 08:19:41;;;;;;;;;;;;;;;;;;5073661;28;19962;-77
2022/04/26 08:22:07;;;;;;;;;;;;;;;;;;5073227;28;19999;-83
2022/04/26 08:27:32;;;;;;;;;;;;;;;;;;5050208;28;19923;-77
2022/04/26 08:29:58;;;;;;;;;;;;;;;;;;5073500;28;19946;-77
2022/04/26 08:32:26;;;;;;;;;;;;;;;;;;5073553;28;19978;-83
2022/04/26 08:34:55;;;;;;;;;;;;;;;;;;5073382;28;19939;-77
2022/04/26 08:37:23;;;;;;;;;;;;;;;;;;5073468;28;19920;-79
2022/04/26 08:39:52;;;;;;;;;;;;;;;;;;5073264;28;19924;-77
2022/04/26 08:42:32;;;;;;;;;;;;;;;;;;5069253;28;19916;-77
2022/04/26 08:44:58;;;;;;;;;;;;;;;;;;5053311;28;19917;-78
2022/04/26 08:53:09;;;;;;;;;;;;;;;;;;5052634;28;20008;-77
2022/04/26 08:55:54;;;;;;;;;;;;;;;;;;5053106;28;20296;-82
2022/04/26 08:58:20;;;;;;;;;;;;;;;;;;5052455;28;20361;-80
2022/04/26 09:01:04;;;;;;;;;;;;;;;;;;5053042;28;19921;-81
2022/04/26 09:03:31;;;;;;;;;;;;;;;;;;5052885;28;19917;-81
2022/04/26 09:06:07;;;;;;;;;;;;;;;;;;5053672;28;23033;-81
2022/04/26 09:08:33;;;;;;;;;;;;;;;;;;5061215;28;20372;-84
2022/04/26 09:11:00;;;;;;;;;;;;;;;;;;5072897;28;19916;-84
2022/04/26 09:13:26;;;;;;;;;;;;;;;;;;5072698;28;19916;-84
2022/04/26 09:15:54;;;;;;;;;;;;;;;;;;5072846;28;20628;-85
2022/04/26 09:18:26;;;;;;;;;;;;;;;;;;5072796;28;20309;-85
2022/04/26 09:20:53;;;;;;;;;;;;;;;;;;5073090;28;19920;-83
2022/04/26 09:23:20;;;;;;;;;;;;;;;;;;5073478;28;19917;-83
2022/04/26 09:25:46;;;;;;;;;;;;;;;;;;5072634;28;19966;-84
2022/04/26 09:28:19;;;;;;;;;;;;;;;;;;5072783;28;19973;-85
2022/04/26 09:30:45;;;;;;;;;;;;;;;;;;5072835;28;20347;-84
2022/04/26 09:33:10;;;;;;;;;;;;;;;;;;5067433;28;19964;-83
2022/04/26 09:35:35;;;;;;;;;;;;;;;;;;5072330;28;19916;-85
2022/04/26 09:38:02;;;;;;;;;;;;;;;;;;5074906;28;19917;-84
2022/04/26 09:40:29;;;;;;;;;;;;;;;;;;5076903;28;20429;-83
2022/04/26 09:42:54;;;;;;;;;;;;;;;;;;5076619;28;19920;-82
2022/04/26 09:45:20;;;;;;;;;;;;;;;;;;5076640;28;20279;-85
2022/04/26 09:47:46;;;;;;;;;;;;;;;;;;5076540;28;20337;-82
2022/04/26 09:50:13;;;;;;;;;;;;;;;;;;5076531;28;19935;-81
2022/04/26 09:52:39;;;;;;;;;;;;;;;;;;5068052;28;19917;-81
2022/04/26 09:55:08;;;;;;;;;;;;;;;;;;5056939;28;19987;-84
2022/04/26 09:57:34;;;;;;;;;;;;;;;;;;5055857;28;20030;-85
2022/04/26 09:59:59;;;;;;;;;;;;;;;;;;5056407;28;19924;-86
2022/04/26 10:02:31;;;;;;;;;;;;;;;;;;5056285;28;19921;-81
2022/04/26 10:04:58;;;;;;;;;;;;;;;;;;5056434;28;19960;-83
2022/04/26 10:07:26;;;;;;;;;;;;;;;;;;5056308;28;19925;-84
2022/04/26 10:09:51;;;;;;;;;;;;;;;;;;5056454;28;19917;-86
2022/04/26 10:12:17;;;;;;;;;;;;;;;;;;5056705;28;19963;-88
2022/04/26 10:14:43;;;;;;;;;;;;;;;;;;5056153;28;19917;-83
2022/04/26 10:17:08;;;;;;;;;;;;;;;;;;5056067;28;19924;-83
2022/04/26 10:19:38;;;;;;;;;;;;;;;;;;5055968;28;20346;-81
2022/04/26 10:22:04;;;;;;;;;;;;;;;;;;5055898;28;19921;-83
2022/04/26 10:24:29;;;;;;;;;;;;;;;;;;5074038;28;19962;-84
2022/04/26 10:27:15;;;;;;;;;;;;;;;;;;5075682;28;20280;-87
2022/04/26 10:29:44;;;;;;;;;;;;;;;;;;5075647;28;20386;-85
2022/04/26 10:32:11;;;;;;;;;;;;;;;;;;5075877;28;19969;-82
2022/04/26 10:34:39;;;;;;;;;;;;;;;;;;5056838;28;20280;-83
2022/04/26 10:37:07;;;;;;;;;;;;;;;;;;5055811;28;19920;-88
2022/04/26 10:39:37;;;;;;;;;;;;;;;;;;5055876;28;20338;-82
2022/04/26 10:42:11;;;;;;;;;;;;;;;;;;5055766;28;20376;-82
2022/04/26 10:44:41;;;;;;;;;;;;;;;;;;5055900;28;20051;-85
2022/04/26 10:47:07;;;;;;;;;;;;;;;;;;5055511;28;19923;-86
2022/04/26 10:49:32;;;;;;;;;;;;;;;;;;5055136;28;20383;-83
2022/04/26 10:52:22;;;;;;;;;;;;;;;;;;5055597;28;20451;-86
2022/04/26 10:54:48;;;;;;;;;;;;;;;;;;5064132;28;19927;-85
2022/04/26 10:57:14;;;;;;;;;;;;;;;;;;5075273;28;20385;-83
2022/04/26 10:59:44;;;;;;;;;;;;;;;;;;5075008;28;19948;-83
2022/04/26 11:02:14;;;;;;;;;;;;;;;;;;5075055;28;19925;-81
2022/04/26 11:04:40;;;;;;;;;;;;;;;;;;5075540;28;19924;-80
2022/04/26 11:07:16;;;;;;;;;;;;;;;;;;5074777;28;19966;-80
2022/04/26 11:09:53;;;;;;;;;;;;;;;;;;5075305;28;19970;-78
2022/04/26 11:12:21;;;;;;;;;;;;;;;;;;5073529;28;19913;-79
2022/04/26 11:14:48;;;;;;;;;;;;;;;;;;5074963;28;19973;-79
2022/04/26 11:17:17;;;;;;;;;;;;;;;;;;5074868;28;19912;-78
2022/04/26 11:19:53;;;;;;;;;;;;;;;;;;5073666;28;19995;-79
2022/04/26 11:22:19;;;;;;;;;;;;;;;;;;5074901;28;19919;-80
2022/04/26 11:30:23;;;;;;;;;;;;;;;;;;5075246;28;19923;-79
2022/04/26 11:32:48;;;;;;;;;;;;;;;;;;5074845;28;19916;-78
2022/04/26 11:35:14;;;;;;;;;;;;;;;;;;5072548;28;20789;-86
2022/04/26 11:38:09;;;;;;;;;;;;;;;;;;5069528;28;19974;-85
2022/04/26 11:40:38;;;;;;;;;;;;;;;;;;5054579;28;19928;-88
2022/04/26 11:43:08;;;;;;;;;;;;;;;;;;5073551;28;19924;-78
2022/04/26 11:45:34;;;;;;;;;;;;;;;;;;5071632;28;19916;-79
2022/04/26 11:48:00;;;;;;;;;;;;;;;;;;5068500;28;19920;-80
2022/04/26 11:50:30;;;;;;;;;;;;;;;;;;5072201;28;19917;-87
2022/04/26 11:53:00;;;;;;;;;;;;;;;;;;5073421;28;19924;-87
2022/04/26 11:55:30;;;;;;;;;;;;;;;;;;5073622;28;19920;-83
2022/04/26 11:58:05;;;;;;;;;;;;;;;;;;5073593;28;20359;-81
2022/04/26 12:00:33;;;;;;;;;;;;;;;;;;5073118;28;20372;-80
2022/04/26 12:02:59;;;;;;;;;;;;;;;;;;5072159;28;20388;-81
2022/04/26 12:05:24;;;;;;;;;;;;;;;;;;5068483;28;19971;-81
2022/04/26 12:07:51;;;;;;;;;;;;;;;;;;5053455;28;20349;-89
2022/04/26 12:10:30;;;;;;;;;;;;;;;;;;5053728;28;20282;-84
2022/04/26 12:12:56;;;;;;;;;;;;;;;;;;5053315;28;20649;-88
2022/04/26 12:15:25;;;;;;;;;;;;;;;;;;5056574;28;19927;-82
2022/04/26 12:18:09;;;;;;;;;;;;;;;;;;5073025;28;19917;-81
2022/04/26 12:20:36;;;;;;;;;;;;;;;;;;5069413;28;19924;-81
2022/04/26 12:23:02;;;;;;;;;;;;;;;;;;5065172;28;19928;-87
2022/04/26 12:25:28;;;;;;;;;;;;;;;;;;5060098;28;20258;-87
2022/04/26 12:28:03;;;;;;;;;;;;;;;;;;5063157;28;19925;-84
2022/04/26 12:30:29;;;;;;;;;;;;;;;;;;5067409;28;19958;-79
2022/04/26 12:32:55;;;;;;;;;;;;;;;;;;5072443;28;19920;-77
2022/04/26 12:35:21;;;;;;;;;;;;;;;;;;5072472;28;19922;-85
2022/04/26 12:37:47;;;;;;;;;;;;;;;;;;5072536;28;19920;-84
2022/04/26 12:40:15;;;;;;;;;;;;;;;;;;5072565;28;19920;-78
2022/04/26 12:42:41;;;;;;;;;;;;;;;;;;5073153;28;19913;-82
2022/04/26 12:45:13;;;;;;;;;;;;;;;;;;5057658;28;19917;-80
2022/04/26 12:50:28;;;;;;;;;;;;;;;;;;5058052;28;19927;-83
2022/04/26 12:53:17;;;;;;;;;;;;;;;;;;5064912;28;19948;-77
2022/04/26 12:55:42;;;;;;;;;;;;;;;;;;5072602;28;20046;-77
2022/04/26 12:58:08;;;;;;;;;;;;;;;;;;5073055;28;19917;-86
2022/04/26 13:00:35;;;;;;;;;;;;;;;;;;5073426;28;19969;-78
2022/04/26 13:03:02;;;;;;;;;;;;;;;;;;5073061;28;20437;-79
2022/04/26 13:05:29;;;;;;;;;;;;;;;;;;5073142;28;19920;-82
2022/04/26 13:07:55;;;;;;;;;;;;;;;;;;5071726;28;19935;-78
2022/04/26 13:10:21;;;;;;;;;;;;;;;;;;5072004;28;19916;-78
2022/04/26 13:12:47;;;;;;;;;;;;;;;;;;5069813;28;19973;-77
2022/04/26 13:15:15;;;;;;;;;;;;;;;;;;5068573;28;19917;-81
2022/04/26 13:17:41;;;;;;;;;;;;;;;;;;5067664;28;20062;-87
2022/04/26 13:20:07;;;;;;;;;;;;;;;;;;5068858;28;20007;-84
2022/04/26 13:22:33;;;;;;;;;;;;;;;;;;5071697;28;20013;-87
2022/04/26 13:24:59;;;;;;;;;;;;;;;;;;5067823;28;19916;-82
2022/04/26 13:27:24;;;;;;;;;;;;;;;;;;5069069;28;19939;-93
2022/04/26 13:29:52;;;;;;;;;;;;;;;;;;5066163;28;19917;-81
2022/04/26 13:32:18;;;;;;;;;;;;;;;;;;5065687;28;19928;-81
2022/04/26 13:34:44;;;;;;;;;;;;;;;;;;5063733;28;20288;-78
2022/04/26 13:37:09;;;;;;;;;;;;;;;;;;5061677;28;20284;-80
2022/04/26 13:39:35;;;;;;;;;;;;;;;;;;5059090;28;19928;-86
2022/04/26 13:42:01;;;;;;;;;;;;;;;;;;5056901;28;20038;-80
2022/04/26 13:44:26;;;;;;;;;;;;;;;;;;5057509;28;20383;-83
2022/04/26 13:46:53;;;;;;;;;;;;;;;;;;5057664;28;19925;-80
2022/04/26 13:49:18;;;;;;;;;;;;;;;;;;5057662;28;19975;-88
2022/04/26 13:51:45;;;;;;;;;;;;;;;;;;5062714;28;19929;-90
2022/04/26 13:54:12;;;;;;;;;;;;;;;;;;5063319;28;20432;-90
2022/04/26 13:56:37;;;;;;;;;;;;;;;;;;5052460;28;19912;-87
2022/04/26 13:59:03;;;;;;;;;;;;;;;;;;5060185;28;20015;-80
2022/04/26 14:01:28;;;;;;;;;;;;;;;;;;5065998;28;19962;-80
2022/04/26 14:03:54;;;;;;;;;;;;;;;;;;5071004;28;20396;-81
2022/04/26 14:06:21;;;;;;;;;;;;;;;;;;5072072;28;20016;-79
2022/04/26 14:08:50;;;;;;;;;;;;;;;;;;5072168;28;20372;-79
2022/04/26 14:11:16;;;;;;;;;;;;;;;;;;5072320;28;19917;-79
2022/04/26 14:21:53;;;;;;;;;;;;;;;;;;5072711;28;19924;-80
2022/04/26 14:24:19;;;;;;;;;;;;;;;;;;5074866;28;19917;-86
2022/04/26 14:26:45;;;;;;;;;;;;;;;;;;5062524;28;19916;-80
2022/04/26 14:29:10;;;;;;;;;;;;;;;;;;5055761;28;19917;-85
2022/04/26 14:31:36;;;;;;;;;;;;;;;;;;5055934;28;20284;-81
2022/04/26 14:34:02;;;;;;;;;;;;;;;;;;5055716;28;19964;-81
2022/04/26 14:36:27;;;;;;;;;;;;;;;;;;5055536;28;19917;-81
2022/04/26 14:38:54;;;;;;;;;;;;;;;;;;5055757;28;19928;-81
2022/04/26 14:41:19;;;;;;;;;;;;;;;;;;5055848;28;20258;-81
2022/04/26 14:43:45;;;;;;;;;;;;;;;;;;5055541;28;20039;-77
2022/04/26 14:46:10;;;;;;;;;;;;;;;;;;5055393;28;19916;-79
2022/04/26 14:48:36;;;;;;;;;;;;;;;;;;5055537;28;19962;-79
2022/04/26 14:51:02;;;;;;;;;;;;;;;;;;5055475;28;19917;-80
2022/04/26 14:53:27;;;;;;;;;;;;;;;;;;5055285;28;19968;-78
2022/04/26 14:55:53;;;;;;;;;;;;;;;;;;5055188;28;20005;-79
2022/04/26 14:58:19;;;;;;;;;;;;;;;;;;5055350;28;19924;-79
2022/04/26 15:00:44;;;;;;;;;;;;;;;;;;5055433;28;20018;-78
2022/04/26 15:03:10;;;;;;;;;;;;;;;;;;5055362;28;19928;-77
2022/04/26 15:05:36;;;;;;;;;;;;;;;;;;5054983;28;19948;-77
2022/04/26 15:10:46;;;;;;;;;;;;;;;;;;5058476;28;19928;-81
2022/04/26 15:18:39;;;;;;;;;;;;;;;;;;5060943;28;19924;-82
2022/04/26 15:21:05;;;;;;;;;;;;;;;;;;5063126;28;19917;-80
2022/04/26 15:23:31;;;;;;;;;;;;;;;;;;5065792;28;20387;-77
2022/04/26 15:25:57;;;;;;;;;;;;;;;;;;5063425;28;19928;-79
2022/04/26 15:28:23;;;;;;;;;;;;;;;;;;5059886;28;19925;-81
2022/04/26 15:30:49;;;;;;;;;;;;;;;;;;5068150;28;20058;-79
2022/04/26 15:33:15;;;;;;;;;;;;;;;;;;5068907;28;19928;-76
2022/04/26 15:35:42;;;;;;;;;;;;;;;;;;5063876;28;19916;-76
2022/04/26 15:38:11;;;;;;;;;;;;;;;;;;5072662;28;20281;-80
2022/04/26 15:40:37;;;;;;;;;;;;;;;;;;5058964;28;20341;-78
2022/04/26 15:43:04;;;;;;;;;;;;;;;;;;5072443;28;19920;-76
2022/04/26 15:45:29;;;;;;;;;;;;;;;;;;5074301;28;19917;-76
2022/04/26 15:47:55;;;;;;;;;;;;;;;;;;5072976;28;20331;-76
2022/04/26 15:50:20;;;;;;;;;;;;;;;;;;5073135;28;19956;-76
2022/04/26 15:52:46;;;;;;;;;;;;;;;;;;5072729;28;19939;-75
2022/04/26 15:55:11;;;;;;;;;;;;;;;;;;5073372;28;19916;-76
2022/04/26 15:57:37;;;;;;;;;;;;;;;;;;5073933;28;19916;-76
2022/04/26 16:00:04;;;;;;;;;;;;;;;;;;5074229;28;19922;-76
2022/04/26 16:02:31;;;;;;;;;;;;;;;;;;5074143;28;20327;-76
2022/04/26 16:04:57;;;;;;;;;;;;;;;;;;5074204;28;20364;-76
2022/04/26 16:07:22;;;;;;;;;;;;;;;;;;5069211;28;19927;-78
2022/04/26 16:20:44;;;;;;;;;;;;;;;;;;5072559;28;20406;-75
2022/04/26 16:23:10;;;;;;;;;;;;;;;;;;5072076;28;19921;-76
2022/04/26 16:25:35;;;;;;;;;;;;;;;;;;5072511;28;19920;-79
2022/04/26 16:28:02;;;;;;;;;;;;;;;;;;5071470;28;20322;-76
2022/04/26 16:30:29;;;;;;;;;;;;;;;;;;5072140;28;19932;-75
2022/04/26 16:32:55;;;;;;;;;;;;;;;;;;5072447;28;20333;-81
2022/04/26 16:35:21;;;;;;;;;;;;;;;;;;5053261;28;19917;-75
2022/04/26 16:37:46;;;;;;;;;;;;;;;;;;5053448;28;20012;-75
2022/04/26 16:40:12;;;;;;;;;;;;;;;;;;5053735;28;20004;-76
2022/04/26 16:42:39;;;;;;;;;;;;;;;;;;5077685;28;20014;-83
2022/04/26 16:45:07;;;;;;;;;;;;;;;;;;5069426;28;19920;-83
2022/04/26 16:47:33;;;;;;;;;;;;;;;;;;5070075;28;20335;-81
2022/04/26 16:49:59;;;;;;;;;;;;;;;;;;5071557;28;19947;-83
2022/04/26 16:52:25;;;;;;;;;;;;;;;;;;5072277;28;19921;-83
2022/04/26 16:54:50;;;;;;;;;;;;;;;;;;5072018;28;20281;-83
2022/04/26 16:57:17;;;;;;;;;;;;;;;;;;5072476;28;19916;-83
2022/04/26 16:59:43;;;;;;;;;;;;;;;;;;5071987;28;19916;-83
2022/04/26 17:02:08;;;;;;;;;;;;;;;;;;5072680;28;20019;-82
2022/04/26 17:04:34;;;;;;;;;;;;;;;;;;5072305;28;19925;-83
2022/04/26 17:07:00;;;;;;;;;;;;;;;;;;5072308;28;19925;-76
2022/04/26 17:09:26;;;;;;;;;;;;;;;;;;5072558;28;19927;-76
2022/04/26 17:11:52;;;;;;;;;;;;;;;;;;5072887;28;19913;-82
2022/04/26 17:14:19;;;;;;;;;;;;;;;;;;5072433;28;19923;-83
2022/04/26 17:16:47;;;;;;;;;;;;;;;;;;5072964;28;19993;-83
2022/04/26 17:19:16;;;;;;;;;;;;;;;;;;5073011;28;19912;-82
2022/04/26 17:21:42;;;;;;;;;;;;;;;;;;5072888;28;19917;-83
2022/04/26 17:26:54;;;;;;;;;;;;;;;;;;5041056;28;19922;-83
2022/04/26 17:29:20;;;;;;;;;;;;;;;;;;5072985;28;19916;-82
2022/04/26 17:31:48;;;;;;;;;;;;;;;;;;5072743;28;20281;-83
2022/04/26 17:34:13;;;;;;;;;;;;;;;;;;5072974;28;19917;-83
2022/04/26 17:36:41;;;;;;;;;;;;;;;;;;5072794;28;19924;-82
2022/04/26 17:39:07;;;;;;;;;;;;;;;;;;5071503;28;19927;-77
2022/04/26 17:41:33;;;;;;;;;;;;;;;;;;5071377;28;19995;-78
2022/04/26 17:43:58;;;;;;;;;;;;;;;;;;5070391;28;19923;-84
2022/04/26 17:46:24;;;;;;;;;;;;;;;;;;5062948;28;19920;-78
2022/04/26 17:48:53;;;;;;;;;;;;;;;;;;5068438;28;19931;-77
2022/04/26 17:51:18;;;;;;;;;;;;;;;;;;5066597;28;20045;-84
2022/04/26 17:56:28;;;;;;;;;;;;;;;;;;5068695;28;19995;-77
2022/04/26 17:58:54;;;;;;;;;;;;;;;;;;5073036;28;20376;-83
2022/04/26 18:01:19;;;;;;;;;;;;;;;;;;5074879;28;20068;-78
2022/04/26 18:03:45;;;;;;;;;;;;;;;;;;5074025;28;20296;-83
2022/04/26 18:06:10;;;;;;;;;;;;;;;;;;5074053;28;20011;-81
2022/04/26 18:08:38;;;;;;;;;;;;;;;;;;5073000;28;19920;-77
2022/04/26 18:11:03;;;;;;;;;;;;;;;;;;5073271;28;19927;-79
2022/04/26 18:13:31;;;;;;;;;;;;;;;;;;5072326;28;19916;-82
2022/04/26 18:15:57;;;;;;;;;;;;;;;;;;5072971;28;20320;-82
2022/04/26 18:18:26;;;;;;;;;;;;;;;;;;5070941;28;20011;-82
2022/04/26 18:20:53;;;;;;;;;;;;;;;;;;5072148;28;19920;-78
2022/04/26 18:23:19;;;;;;;;;;;;;;;;;;5073705;28;19964;-79
2022/04/26 18:28:29;;;;;;;;;;;;;;;;;;5070595;28;19969;-82
2022/04/26 18:30:54;;;;;;;;;;;;;;;;;;5071858;28;19924;-82
2022/04/26 18:33:20;;;;;;;;;;;;;;;;;;5071249;28;20011;-81
2022/04/26 18:35:46;;;;;;;;;;;;;;;;;;5072038;28;19924;-80
2022/04/26 18:38:13;;;;;;;;;;;;;;;;;;5070594;28;19920;-78
2022/04/26 18:40:38;;;;;;;;;;;;;;;;;;5070495;28;20384;-76
2022/04/26 18:43:04;;;;;;;;;;;;;;;;;;5072001;28;19921;-79
2022/04/26 18:45:30;;;;;;;;;;;;;;;;;;5071612;28;19924;-78
2022/04/26 18:47:55;;;;;;;;;;;;;;;;;;5069250;28;19924;-75
2022/04/26 18:50:21;;;;;;;;;;;;;;;;;;5075497;28;19962;-77
2022/04/26 18:52:47;;;;;;;;;;;;;;;;;;5074494;28;20020;-76
2022/04/26 18:55:12;;;;;;;;;;;;;;;;;;5074123;28;19920;-77
2022/04/26 18:57:38;;;;;;;;;;;;;;;;;;5074339;28;19909;-77
2022/04/26 19:00:04;;;;;;;;;;;;;;;;;;5075542;28;19916;-77
2022/04/26 19:02:30;;;;;;;;;;;;;;;;;;5057538;28;19917;-77
2022/04/26 19:04:55;;;;;;;;;;;;;;;;;;5073037;28;20058;-77
2022/04/26 19:07:21;;;;;;;;;;;;;;;;;;5067419;28;20525;-76
2022/04/26 19:12:30;;;;;;;;;;;;;;;;;;5042791;28;20423;-75
2022/04/26 19:14:56;;;;;;;;;;;;;;;;;;5038339;28;19920;-78
2022/04/26 19:17:21;;;;;;;;;;;;;;;;;;5035917;28;20656;-81
2022/04/26 19:19:47;;;;;;;;;;;;;;;;;;5033791;28;19925;-79
2022/04/26 19:22:16;;;;;;;;;;;;;;;;;;5033761;28;19935;-77
2022/04/26 19:24:41;;;;;;;;;;;;;;;;;;5040670;28;20056;-77
2022/04/26 19:27:07;;;;;;;;;;;;;;;;;;5035544;28;19917;-76
2022/04/26 19:29:32;;;;;;;;;;;;;;;;;;5038203;28;20217;-77
2022/04/26 19:31:58;;;;;;;;;;;;;;;;;;5035009;28;19928;-76
2022/04/26 19:34:23;;;;;;;;;;;;;;;;;;5038172;28;19929;-76
2022/04/26 19:36:49;;;;;;;;;;;;;;;;;;5029354;28;20427;-78
2022/04/26 19:39:15;;;;;;;;;;;;;;;;;;5033475;28;19925;-77
2022/04/26 19:41:41;;;;;;;;;;;;;;;;;;5036406;28;19917;-77
2022/04/26 19:44:06;;;;;;;;;;;;;;;;;;5039093;28;20007;-78
2022/04/26 19:46:32;;;;;;;;;;;;;;;;;;5033596;28;20041;-77
2022/04/26 19:48:57;;;;;;;;;;;;;;;;;;5035071;28;20039;-77
2022/04/26 19:51:25;;;;;;;;;;;;;;;;;;5033413;28;19924;-81
2022/04/26 19:53:51;;;;;;;;;;;;;;;;;;5034957;28;19928;-77
2022/04/26 19:56:16;;;;;;;;;;;;;;;;;;5036748;28;20443;-79
2022/04/26 19:58:43;;;;;;;;;;;;;;;;;;5039425;28;19931;-78
2022/04/26 20:01:08;;;;;;;;;;;;;;;;;;5037959;28;19924;-78
2022/04/26 20:03:34;;;;;;;;;;;;;;;;;;5036593;28;20296;-79
2022/04/26 20:05:59;;;;;;;;;;;;;;;;;;5039394;28;20300;-77
2022/04/26 20:08:25;;;;;;;;;;;;;;;;;;5034791;28;19925;-78
2022/04/26 20:10:51;;;;;;;;;;;;;;;;;;5033821;28;19929;-78
2022/04/26 20:13:17;;;;;;;;;;;;;;;;;;5032895;28;20376;-78
2022/04/26 20:15:42;;;;;;;;;;;;;;;;;;5032390;28;19921;-79
2022/04/26 20:18:09;;;;;;;;;;;;;;;;;;5032048;28;19921;-78
2022/04/26 20:20:34;;;;;;;;;;;;;;;;;;5031622;28;19990;-80
2022/04/26 20:23:00;;;;;;;;;;;;;;;;;;5031657;28;19917;-78
2022/04/26 20:25:25;;;;;;;;;;;;;;;;;;5032334;28;19925;-79
2022/04/26 20:30:35;;;;;;;;;;;;;;;;;;5033336;28;19987;-77
2022/04/26 20:33:02;;;;;;;;;;;;;;;;;;5031218;28;20435;-77
2022/04/26 20:35:29;;;;;;;;;;;;;;;;;;5032959;28;20387;-80
2022/04/26 20:37:54;;;;;;;;;;;;;;;;;;5031009;28;19924;-77
2022/04/26 20:40:22;;;;;;;;;;;;;;;;;;5029547;28;19975;-79
2022/04/26 20:42:47;;;;;;;;;;;;;;;;;;5029966;28;19921;-81
2022/04/26 20:45:12;;;;;;;;;;;;;;;;;;5027978;28;20332;-79
2022/04/26 20:47:38;;;;;;;;;;;;;;;;;;5028848;28;19925;-79
2022/04/26 20:50:04;;;;;;;;;;;;;;;;;;5028685;28;20387;-79
2022/04/26 20:52:30;;;;;;;;;;;;;;;;;;5027111;28;19975;-79
2022/04/26 20:54:56;;;;;;;;;;;;;;;;;;5029963;28;20336;-86
2022/04/26 20:57:21;;;;;;;;;;;;;;;;;;5024308;28;19952;-80
2022/04/26 20:59:47;;;;;;;;;;;;;;;;;;5028928;28;19921;-84
2022/04/26 21:02:12;;;;;;;;;;;;;;;;;;5028029;28;19917;-80
2022/04/26 21:04:38;;;;;;;;;;;;;;;;;;5030540;28;19956;-79
2022/04/26 21:07:03;;;;;;;;;;;;;;;;;;5035316;28;19948;-87
2022/04/26 21:09:29;;;;;;;;;;;;;;;;;;5054376;28;19917;-78
2022/04/26 21:11:55;;;;;;;;;;;;;;;;;;5076592;28;20291;-79
2022/04/26 21:14:20;;;;;;;;;;;;;;;;;;5088470;28;20265;-83
2022/04/26 21:16:46;;;;;;;;;;;;;;;;;;5065114;28;21463;-79
2022/04/26 21:19:11;;;;;;;;;;;;;;;;;;5066574;28;19959;-79
2022/04/26 21:21:37;;;;;;;;;;;;;;;;;;5067668;28;19955;-81